createdAt,value
2018-03-14T00:01:33.666Z,59.85
2018-03-14T00:04:00.077Z,59.67
2018-03-14T00:06:26.473Z,59.33
2018-03-14T00:08:52.882Z,61.66
2018-03-14T00:11:19.341Z,62.56
2018-03-14T00:13:45.786Z,60.63
2018-03-14T00:16:12.210Z,60.21
2018-03-14T00:18:38.610Z,60.31
2018-03-14T00:21:05.417Z,60.64
2018-03-14T00:23:32.193Z,60.97
2018-03-14T00:25:58.628Z,60.32
2018-03-14T00:28:25.078Z,60.12
2018-03-14T00:30:51.539Z,60.57
2018-03-14T00:33:17.994Z,61.13
2018-03-14T00:35:44.469Z,61.22
2018-03-14T00:38:10.993Z,61.20
2018-03-14T00:40:37.466Z,61.98
2018-03-14T00:43:03.873Z,62.13
2018-03-14T00:45:30.308Z,61.88
2018-03-14T00:47:56.782Z,61.75
2018-03-14T00:50:23.195Z,61.91
2018-03-14T00:52:49.761Z,65.32
2018-03-14T00:55:16.198Z,62.99
2018-03-14T00:57:42.636Z,61.86
2018-03-14T01:00:09.106Z,62.08
2018-03-14T01:02:35.572Z,61.53
2018-03-14T01:05:01.981Z,61.22
2018-03-14T01:07:28.382Z,61.32
2018-03-14T01:09:54.833Z,67.89
2018-03-14T01:12:21.312Z,63.47
2018-03-14T01:14:47.817Z,61.30
2018-03-14T01:17:14.259Z,60.81
2018-03-14T01:19:40.706Z,60.71
2018-03-14T01:22:07.225Z,62.17
2018-03-14T01:24:33.625Z,62.44
2018-03-14T01:27:00.017Z,61.41
2018-03-14T01:29:26.472Z,63.28
2018-03-14T01:31:53.001Z,61.01
2018-03-14T01:34:19.494Z,60.60
2018-03-14T01:36:45.973Z,61.46
2018-03-14T01:39:12.384Z,64.47
2018-03-14T01:41:38.873Z,61.04
2018-03-14T01:44:05.273Z,60.38
2018-03-14T01:46:31.861Z,62.98
2018-03-14T01:48:58.288Z,62.67
2018-03-14T01:51:24.668Z,61.65
2018-03-14T01:53:51.099Z,63.71
2018-03-14T01:56:17.566Z,63.86
2018-03-14T01:58:44.005Z,61.32
2018-03-14T02:01:10.608Z,62.90
2018-03-14T02:03:37.114Z,64.62
2018-03-14T02:06:03.570Z,60.58
2018-03-14T02:08:30.005Z,59.64
2018-03-14T02:10:56.473Z,61.66
2018-03-14T02:13:22.905Z,64.45
2018-03-14T02:15:49.330Z,64.40
2018-03-14T02:18:15.804Z,59.19
2018-03-14T02:20:42.273Z,62.31
2018-03-14T02:23:08.718Z,59.04
2018-03-14T02:25:35.142Z,58.63
2018-03-14T02:28:01.550Z,61.77
2018-03-14T02:30:27.934Z,61.08
2018-03-14T02:32:54.342Z,61.33
2018-03-14T02:35:20.729Z,59.86
2018-03-14T02:37:47.198Z,62.62
2018-03-14T02:40:13.623Z,57.84
2018-03-14T02:42:40.133Z,59.42
2018-03-14T02:45:06.549Z,58.56
2018-03-14T02:47:32.946Z,57.11
2018-03-14T02:49:59.358Z,57.74
2018-03-14T02:52:25.822Z,62.27
2018-03-14T02:54:52.234Z,60.53
2018-03-14T02:57:18.629Z,66.01
2018-03-14T02:59:44.993Z,61.34
2018-03-14T03:02:11.428Z,64.78
2018-03-14T03:04:37.833Z,62.63
2018-03-14T03:07:04.261Z,66.53
2018-03-14T03:09:30.730Z,62.34
2018-03-14T03:11:57.130Z,63.09
2018-03-14T03:14:23.502Z,58.55
2018-03-14T03:16:50.061Z,58.82
2018-03-14T03:19:16.656Z,60.56
2018-03-14T03:21:43.174Z,59.01
2018-03-14T03:24:09.605Z,64.51
2018-03-14T03:26:35.994Z,58.94
2018-03-14T03:29:02.400Z,65.68
2018-03-14T03:31:28.804Z,61.92
2018-03-14T03:33:55.257Z,60.91
2018-03-14T03:36:21.657Z,65.25
2018-03-14T03:38:48.123Z,59.23
2018-03-14T03:41:14.494Z,59.46
2018-03-14T03:43:40.949Z,62.45
2018-03-14T03:46:07.423Z,59.37
2018-03-14T03:48:33.857Z,61.20
2018-03-14T03:51:00.406Z,60.29
2018-03-14T03:53:26.874Z,60.44
2018-03-14T03:55:53.366Z,65.24
2018-03-14T03:58:19.751Z,58.80
2018-03-14T04:00:46.129Z,59.10
2018-03-14T04:03:12.637Z,62.42
2018-03-14T04:05:39.069Z,61.65
2018-03-14T04:08:05.470Z,58.77
2018-03-14T04:10:31.903Z,62.01
2018-03-14T04:12:58.382Z,61.38
2018-03-14T04:15:24.829Z,60.79
2018-03-14T04:17:51.237Z,59.15
2018-03-14T04:20:17.766Z,60.01
2018-03-14T04:22:44.185Z,61.69
2018-03-14T04:25:10.614Z,66.37
2018-03-14T04:27:37.037Z,59.96
2018-03-14T04:30:03.532Z,59.17
2018-03-14T04:32:30.007Z,58.82
2018-03-14T04:34:56.397Z,58.39
2018-03-14T04:37:22.785Z,61.45
2018-03-14T04:39:49.230Z,61.63
2018-03-14T04:42:15.833Z,65.86
2018-03-14T04:44:42.253Z,66.50
2018-03-14T04:47:08.649Z,64.06
2018-03-14T04:49:35.123Z,62.14
2018-03-14T04:52:01.639Z,61.43
2018-03-14T04:54:28.133Z,58.55
2018-03-14T04:56:54.586Z,62.92
2018-03-14T04:59:21.040Z,60.18
2018-03-14T05:01:47.402Z,62.71
2018-03-14T05:04:13.889Z,59.23
2018-03-14T05:06:40.318Z,59.62
2018-03-14T05:09:06.886Z,58.11
2018-03-14T05:11:33.346Z,62.20
2018-03-14T05:13:59.857Z,58.43
2018-03-14T05:16:26.230Z,60.09
2018-03-14T05:18:52.645Z,58.32
2018-03-14T05:21:19.043Z,61.05
2018-03-14T05:23:45.509Z,58.01
2018-03-14T05:26:11.965Z,60.14
2018-03-14T05:28:38.386Z,57.83
2018-03-14T05:31:04.818Z,62.81
2018-03-14T05:33:31.194Z,60.26
2018-03-14T05:35:57.621Z,58.03
2018-03-14T05:38:24.035Z,57.84
2018-03-14T05:40:50.406Z,58.76
2018-03-14T05:43:16.846Z,58.56
2018-03-14T05:45:43.273Z,59.79
2018-03-14T05:48:09.745Z,59.96
2018-03-14T05:50:36.289Z,58.57
2018-03-14T05:53:02.778Z,59.08
2018-03-14T05:55:29.207Z,60.10
2018-03-14T05:57:55.577Z,59.56
2018-03-14T06:00:22.100Z,58.07
2018-03-14T06:02:48.645Z,60.80
2018-03-14T06:05:15.106Z,60.78
2018-03-14T06:07:41.585Z,58.54
2018-03-14T06:10:08.074Z,59.66
2018-03-14T06:12:37.195Z,58.86
2018-03-14T06:15:03.882Z,58.21
2018-03-14T06:17:30.280Z,59.31
2018-03-14T06:19:56.682Z,56.86
2018-03-14T06:22:23.294Z,57.58
2018-03-14T06:24:49.730Z,59.24
2018-03-14T06:27:16.280Z,60.21
2018-03-14T06:29:43.069Z,57.16
2018-03-14T06:32:09.582Z,59.66
2018-03-14T06:34:36.038Z,56.41
2018-03-14T06:37:02.517Z,56.60
2018-03-14T06:39:29.034Z,56.32
2018-03-14T06:41:55.562Z,55.38
2018-03-14T06:44:21.958Z,56.24
2018-03-14T06:46:48.539Z,59.22
2018-03-14T06:49:15.163Z,58.09
2018-03-14T06:51:41.570Z,55.73
2018-03-14T06:54:08.067Z,57.21
2018-03-14T10:37:05.122Z,49.81
2018-03-14T10:39:31.606Z,40.68
2018-03-14T10:41:58.084Z,39.63
2018-03-14T10:44:24.423Z,39.42
2018-03-14T10:46:50.778Z,38.74
2018-03-14T10:49:17.213Z,39.01
2018-03-14T10:51:43.683Z,39.18
2018-03-14T10:54:10.139Z,40.95
2018-03-14T10:56:36.662Z,40.80
2018-03-14T10:59:03.109Z,45.64
2018-03-14T11:01:35.575Z,48.09
2018-03-14T11:04:02.010Z,37.49
2018-03-14T11:06:28.513Z,41.78
2018-03-14T11:08:55.165Z,40.29
2018-03-14T11:11:21.621Z,40.84
2018-03-14T11:13:48.204Z,41.17
2018-03-14T11:16:14.588Z,39.06
2018-03-14T11:18:40.962Z,37.88
2018-03-14T11:21:07.351Z,42.71
2018-03-14T11:23:33.862Z,39.47
2018-03-14T11:26:00.400Z,42.66
2018-03-14T11:28:29.081Z,43.38
2018-03-14T11:30:55.689Z,41.83
2018-03-14T11:33:22.457Z,42.22
2018-03-14T11:35:48.902Z,44.56
2018-03-14T11:38:15.373Z,42.49
2018-03-14T11:40:41.791Z,42.99
2018-03-14T11:43:08.186Z,45.47
2018-03-14T11:45:34.623Z,43.20
2018-03-14T11:48:01.033Z,43.67
2018-03-14T11:50:27.593Z,43.81
2018-03-14T11:52:54.001Z,45.12
2018-03-14T11:55:20.413Z,41.58
2018-03-14T11:57:46.866Z,41.85
2018-03-14T12:00:13.234Z,41.86
2018-03-14T12:02:39.594Z,42.13
2018-03-14T12:05:06.061Z,43.97
2018-03-14T12:07:32.525Z,42.70
2018-03-14T12:09:58.907Z,42.98
2018-03-14T12:12:25.428Z,45.65
2018-03-14T12:14:51.802Z,50.44
2018-03-14T12:17:18.169Z,43.50
2018-03-14T12:19:44.571Z,44.79
2018-03-14T12:22:18.100Z,46.76
2018-03-14T12:24:44.610Z,53.26
2018-03-14T12:27:11.002Z,48.63
2018-03-14T12:29:37.466Z,52.55
2018-03-14T12:32:03.858Z,55.19
2018-03-14T12:34:30.385Z,57.88
2018-03-14T12:36:56.864Z,57.83
2018-03-14T12:39:23.223Z,58.06
2018-03-14T12:41:49.582Z,59.54
2018-03-14T12:44:16.046Z,59.27
2018-03-14T12:46:42.405Z,57.73
2018-03-14T12:49:08.850Z,58.05
2018-03-14T12:51:35.290Z,59.95
2018-03-14T12:54:01.720Z,59.28
2018-03-14T12:56:28.105Z,61.04
2018-03-14T12:58:54.538Z,61.24
2018-03-14T13:01:20.955Z,57.77
2018-03-14T13:03:47.308Z,54.13
2018-03-14T13:06:13.740Z,61.37
2018-03-14T13:08:40.293Z,60.22
2018-03-14T13:11:06.626Z,60.12
2018-03-14T13:13:33.025Z,60.45
2018-03-14T13:15:59.458Z,60.78
2018-03-14T13:18:25.865Z,60.11
2018-03-14T13:20:52.223Z,61.02
2018-03-14T13:23:18.658Z,60.66
2018-03-14T13:25:45.058Z,60.10
2018-03-14T13:28:11.477Z,60.83
2018-03-14T13:30:37.938Z,62.96
2018-03-14T13:33:04.406Z,62.56
2018-03-14T13:35:30.862Z,62.17
2018-03-14T13:37:57.222Z,55.83
2018-03-14T13:40:23.654Z,55.01
2018-03-14T13:42:50.091Z,59.95
2018-03-14T13:45:16.485Z,53.20
2018-03-14T13:47:43.042Z,59.80
2018-03-14T13:50:09.525Z,57.93
2018-03-14T13:52:36.037Z,59.82
2018-03-14T13:55:02.495Z,61.34
2018-03-14T13:57:28.888Z,61.27
2018-03-14T13:59:55.350Z,61.33
2018-03-14T14:02:21.786Z,61.97
2018-03-14T14:04:48.246Z,60.17
2018-03-14T14:07:14.604Z,61.98
2018-03-14T14:09:40.985Z,60.93
2018-03-14T14:12:07.418Z,62.74
2018-03-14T14:14:34.770Z,60.63
2018-03-14T14:17:01.176Z,57.74
2018-03-14T14:19:27.530Z,62.78
2018-03-14T14:21:53.973Z,60.42
2018-03-14T14:24:20.400Z,59.12
2018-03-14T14:26:46.758Z,61.98
2018-03-14T14:29:13.217Z,63.73
2018-03-14T14:31:39.629Z,60.75
2018-03-14T14:34:06.077Z,60.83
2018-03-14T14:36:32.770Z,64.67
2018-03-14T14:38:59.211Z,66.38
2018-03-14T14:41:26.952Z,61.87
2018-03-14T14:43:53.354Z,60.92
2018-03-14T14:46:19.750Z,60.66
2018-03-14T14:48:46.466Z,64.93
2018-03-14T14:51:12.944Z,63.56
2018-03-14T14:53:39.435Z,61.64
2018-03-14T14:56:06.008Z,63.50
2018-03-14T14:58:32.540Z,64.60
2018-03-14T15:00:58.927Z,63.05
2018-03-14T15:03:25.694Z,63.75
2018-03-14T15:05:52.218Z,64.02
2018-03-14T15:08:18.650Z,65.57
2018-03-14T15:10:45.054Z,65.77
2018-03-14T15:13:11.468Z,65.06
2018-03-14T15:15:37.925Z,64.38
2018-03-14T15:18:04.650Z,64.84
2018-03-14T15:20:31.134Z,56.85
2018-03-14T15:22:57.614Z,64.66
2018-03-14T15:25:24.071Z,64.72
2018-03-14T15:27:50.644Z,62.60
2018-03-14T15:30:16.978Z,62.40
2018-03-14T15:32:43.457Z,64.60
2018-03-14T15:35:09.905Z,58.88
2018-03-14T15:37:36.454Z,61.21
2018-03-14T15:40:03.055Z,58.20
2018-03-14T15:42:29.585Z,59.07
2018-03-14T15:44:56.100Z,55.42
2018-03-14T15:47:22.537Z,59.42
2018-03-14T15:49:48.891Z,56.31
2018-03-14T15:52:15.277Z,55.10
2018-03-14T15:54:41.845Z,54.84
2018-03-14T15:57:08.410Z,54.95
2018-03-14T15:59:34.891Z,55.59
2018-03-14T16:02:03.678Z,63.82
2018-03-14T16:04:33.554Z,63.13
2018-03-14T16:07:00.196Z,62.76
2018-03-14T16:09:27.770Z,65.01
2018-03-14T16:11:54.272Z,65.36
2018-03-14T16:14:20.693Z,57.81
2018-03-14T16:16:47.238Z,65.89
2018-03-14T16:19:13.665Z,57.87
2018-03-14T16:21:40.047Z,62.09
2018-03-14T16:24:06.441Z,60.76
2018-03-14T16:26:32.845Z,58.92
2018-03-14T16:28:59.609Z,62.32
2018-03-14T16:31:26.471Z,64.52
2018-03-14T16:33:52.942Z,61.72
2018-03-14T16:36:19.375Z,65.37
2018-03-14T16:38:45.787Z,61.44
2018-03-14T16:41:12.245Z,64.23
2018-03-14T16:43:38.622Z,58.90
2018-03-14T16:46:05.165Z,58.59
2018-03-14T16:48:31.590Z,58.85
2018-03-14T16:50:58.323Z,58.64
2018-03-14T16:53:24.718Z,65.49
2018-03-14T16:55:51.203Z,61.99
2018-03-14T16:58:17.895Z,63.79
2018-03-14T17:00:44.315Z,61.80
2018-03-14T17:03:10.907Z,61.11
2018-03-14T17:05:37.475Z,61.30
2018-03-14T17:08:04.009Z,59.72
2018-03-14T17:10:30.391Z,60.65
2018-03-14T17:12:56.921Z,61.06
2018-03-14T17:15:23.338Z,59.54
2018-03-14T17:17:49.758Z,62.88
2018-03-14T17:20:16.210Z,61.35
2018-03-14T17:22:44.663Z,64.27
2018-03-14T17:25:11.526Z,61.45
2018-03-14T17:27:38.006Z,63.31
2018-03-14T17:30:04.523Z,62.80
2018-03-14T17:32:30.978Z,63.09
2018-03-14T17:34:57.334Z,62.10
2018-03-14T17:37:23.762Z,67.88
2018-03-14T17:39:50.136Z,66.15
2018-03-14T17:42:16.606Z,66.56
2018-03-14T17:44:43.029Z,63.08
2018-03-14T17:47:09.454Z,65.30
2018-03-14T17:49:35.883Z,65.33
2018-03-14T17:52:02.459Z,67.52
2018-03-14T17:54:28.953Z,63.10
2018-03-14T17:56:55.521Z,64.30
2018-03-14T17:59:22.048Z,64.41
2018-03-14T18:01:48.544Z,68.50
2018-03-14T18:04:16.032Z,69.68
2018-03-14T18:06:42.657Z,66.19
2018-03-14T18:09:09.116Z,68.55
2018-03-14T18:11:35.523Z,63.77
2018-03-14T18:14:01.948Z,65.28
2018-03-14T18:16:28.438Z,64.12
2018-03-14T18:18:54.808Z,64.97
2018-03-14T18:21:21.347Z,62.69
2018-03-14T18:23:47.696Z,67.80
2018-03-14T18:26:14.176Z,62.20
2018-03-14T18:28:40.590Z,62.58
2018-03-14T18:31:06.983Z,66.32
2018-03-14T18:33:33.387Z,61.45
2018-03-14T18:36:00.026Z,61.92
2018-03-14T18:38:26.441Z,66.90
2018-03-14T18:40:52.805Z,62.47
2018-03-14T18:43:19.226Z,64.43
2018-03-14T18:45:45.658Z,63.47
2018-03-14T18:48:12.195Z,66.14
2018-03-14T18:50:38.850Z,67.92
2018-03-14T18:53:05.282Z,60.65
2018-03-14T18:55:31.691Z,61.61
2018-03-14T18:57:58.165Z,62.49
2018-03-14T19:00:24.771Z,61.58
2018-03-14T19:02:51.168Z,60.19
2018-03-14T19:05:17.601Z,62.17
2018-03-14T19:07:44.018Z,64.66
2018-03-14T19:10:10.442Z,60.49
2018-03-14T19:12:36.895Z,60.42
2018-03-14T19:15:03.320Z,60.11
2018-03-14T19:17:29.885Z,60.59
2018-03-14T19:19:56.344Z,60.29
2018-03-14T19:22:22.829Z,61.23
2018-03-14T19:24:49.286Z,60.71
2018-03-14T19:27:15.698Z,60.83
2018-03-14T19:29:42.149Z,60.27
2018-03-14T19:32:08.529Z,60.35
2018-03-14T19:34:34.983Z,60.51
2018-03-14T19:37:01.411Z,60.94
2018-03-14T19:39:27.870Z,60.42
2018-03-14T19:41:57.566Z,61.09
2018-03-14T19:44:24.015Z,60.78
2018-03-14T19:46:50.425Z,61.44
2018-03-14T19:49:16.849Z,60.82
2018-03-14T19:51:43.294Z,60.65
2018-03-14T19:54:09.690Z,60.77
2018-03-14T19:56:36.121Z,60.76
2018-03-14T19:59:02.520Z,60.67
2018-03-14T20:01:28.974Z,60.67
2018-03-14T20:03:55.369Z,60.56
2018-03-14T20:06:21.758Z,60.75
2018-03-14T20:08:48.350Z,60.38
2018-03-14T20:11:14.674Z,60.48
2018-03-14T20:13:41.069Z,60.73
2018-03-14T20:16:07.598Z,60.82
2018-03-14T20:18:34.084Z,60.61
2018-03-14T20:21:00.526Z,60.07
2018-03-14T20:23:26.893Z,60.43
2018-03-14T20:25:53.363Z,60.40
2018-03-14T20:28:19.817Z,59.56
2018-03-14T20:30:46.241Z,60.08
2018-03-14T20:33:12.679Z,60.25
2018-03-14T20:35:39.132Z,60.17
2018-03-14T20:38:05.589Z,60.65
2018-03-14T20:40:32.022Z,60.55
2018-03-14T20:42:58.443Z,60.98
2018-03-14T20:45:24.913Z,60.82
2018-03-14T20:47:51.379Z,61.04
2018-03-14T20:50:17.806Z,61.08
2018-03-14T20:52:44.186Z,60.49
2018-03-14T20:55:10.577Z,61.13
2018-03-14T20:57:39.521Z,61.22
2018-03-14T21:00:06.037Z,67.12
2018-03-14T21:02:32.644Z,61.98
2018-03-14T21:04:59.086Z,61.43
2018-03-14T21:07:26.330Z,61.38
2018-03-14T21:09:52.758Z,61.52
2018-03-14T21:12:19.149Z,61.85
2018-03-14T21:14:45.542Z,61.31
2018-03-14T21:17:12.044Z,61.43
2018-03-14T21:19:38.477Z,62.10
2018-03-14T21:22:04.844Z,61.96
2018-03-14T21:24:31.263Z,63.49
2018-03-14T21:26:57.797Z,61.78
2018-03-14T21:29:24.202Z,61.51
2018-03-14T21:31:50.614Z,61.46
2018-03-14T21:34:16.989Z,61.75
2018-03-14T21:36:43.321Z,61.04
2018-03-14T21:39:09.838Z,61.01
2018-03-14T21:41:36.218Z,60.65
2018-03-14T21:44:02.648Z,61.20
2018-03-14T21:46:29.086Z,61.21
2018-03-14T21:48:55.544Z,60.61
2018-03-14T21:51:22.017Z,61.20
2018-03-14T21:53:48.421Z,62.00
2018-03-14T21:56:14.954Z,61.36
2018-03-14T21:58:41.353Z,61.11
2018-03-14T22:01:07.871Z,61.34
2018-03-14T22:03:34.330Z,61.70
2018-03-14T22:06:00.834Z,60.68
2018-03-14T22:08:27.369Z,61.03
2018-03-14T22:10:53.822Z,60.92
2018-03-14T22:13:20.346Z,60.92
2018-03-14T22:15:46.866Z,61.25
2018-03-14T22:18:13.323Z,61.69
2018-03-14T22:20:39.822Z,61.68
2018-03-14T22:23:06.274Z,61.78
2018-03-14T22:25:32.978Z,61.61
2018-03-14T22:27:59.466Z,61.82
2018-03-14T22:30:25.930Z,62.79
2018-03-14T22:32:52.337Z,62.19
2018-03-14T22:35:18.800Z,62.09
2018-03-14T22:37:45.250Z,61.79
2018-03-14T22:40:11.694Z,61.71
2018-03-14T22:42:38.186Z,62.14
2018-03-14T22:45:04.630Z,62.02
2018-03-14T22:47:31.118Z,62.07
2018-03-14T22:49:57.591Z,62.29
2018-03-14T22:52:24.090Z,62.56
2018-03-14T22:54:50.546Z,62.07
2018-03-14T22:57:16.998Z,62.17
2018-03-14T22:59:43.574Z,62.19
2018-03-14T23:02:10.063Z,62.26
2018-03-14T23:04:36.614Z,62.70
2018-03-14T23:07:03.123Z,62.94
2018-03-14T23:09:29.586Z,62.85
2018-03-14T23:11:55.974Z,62.61
2018-03-14T23:14:22.385Z,62.80
2018-03-14T23:16:48.805Z,62.90
2018-03-14T23:19:15.234Z,62.64
2018-03-14T23:21:42.065Z,62.89
2018-03-14T23:24:08.504Z,62.82
2018-03-14T23:26:34.925Z,62.89
2018-03-14T23:29:01.328Z,63.05
2018-03-14T23:31:27.703Z,62.89
2018-03-14T23:33:54.082Z,62.74
2018-03-14T23:36:20.506Z,62.97
2018-03-14T23:38:46.897Z,63.18
2018-03-14T23:41:13.313Z,63.57
2018-03-14T23:43:39.753Z,62.96
2018-03-14T23:46:06.197Z,63.14
2018-03-14T23:48:32.578Z,63.45
2018-03-14T23:50:59.034Z,63.47
2018-03-14T23:53:25.482Z,63.20
2018-03-14T23:55:51.969Z,63.56
2018-03-14T23:58:18.538Z,63.92
